sensor_id;sensor_type;location;lat;lon;timestamp;pressure;altitude;pressure_sealevel;temperature;humidity
6024;BME280;3040;42.654;23.296;2023-07-13T00:01:40;94543.25;;;25.78;52.83
6024;BME280;3040;42.654;23.296;2023-07-13T00:04:08;94535.66;;;25.69;51.02
6024;BME280;3040;42.654;23.296;2023-07-13T00:06:35;94534.97;;;25.81;51.94
6024;BME280;3040;42.654;23.296;2023-07-13T00:09:02;94535.69;;;25.85;51.95
6024;BME280;3040;42.654;23.296;2023-07-13T00:11:29;94542.22;;;25.72;50.49
6024;BME280;3040;42.654;23.296;2023-07-13T00:13:57;94527.66;;;25.62;51.11
6024;BME280;3040;42.654;23.296;2023-07-13T00:16:25;94534.59;;;25.67;51.09
6024;BME280;3040;42.654;23.296;2023-07-13T00:18:51;94532.38;;;25.62;51.42
6024;BME280;3040;42.654;23.296;2023-07-13T00:21:19;94524.34;;;25.71;54.03
6024;BME280;3040;42.654;23.296;2023-07-13T00:23:45;94536.25;;;25.77;53.13
6024;BME280;3040;42.654;23.296;2023-07-13T00:26:12;94532.28;;;25.65;52.32
6024;BME280;3040;42.654;23.296;2023-07-13T00:28:39;94523.69;;;25.67;51.78
6024;BME280;3040;42.654;23.296;2023-07-13T00:31:09;94520.78;;;25.58;53.09
6024;BME280;3040;42.654;23.296;2023-07-13T00:33:35;94505.66;;;25.21;52.33
6024;BME280;3040;42.654;23.296;2023-07-13T00:36:03;94527.47;;;25.37;53.13
6024;BME280;3040;42.654;23.296;2023-07-13T00:38:30;94520.25;;;25.46;53.67
6024;BME280;3040;42.654;23.296;2023-07-13T00:40:57;94523.38;;;25.45;53.75
6024;BME280;3040;42.654;23.296;2023-07-13T00:43:26;94524.66;;;25.24;52.66
6024;BME280;3040;42.654;23.296;2023-07-13T00:46:21;94524.81;;;25.17;54.29
6024;BME280;3040;42.654;23.296;2023-07-13T00:48:49;94510.25;;;25.07;54.51
6024;BME280;3040;42.654;23.296;2023-07-13T00:51:19;94531.41;;;25.00;53.19
6024;BME280;3040;42.654;23.296;2023-07-13T00:53:47;94529.97;;;24.76;54.11
6024;BME280;3040;42.654;23.296;2023-07-13T00:56:14;94529.25;;;24.91;53.96
6024;BME280;3040;42.654;23.296;2023-07-13T00:58:41;94524.19;;;24.93;53.55
6024;BME280;3040;42.654;23.296;2023-07-13T01:01:08;94513.53;;;24.43;55.34
6024;BME280;3040;42.654;23.296;2023-07-13T01:03:36;94509.00;;;24.56;54.60
6024;BME280;3040;42.654;23.296;2023-07-13T01:06:06;94510.66;;;24.50;54.21
6024;BME280;3040;42.654;23.296;2023-07-13T01:08:33;94482.28;;;24.51;55.21
6024;BME280;3040;42.654;23.296;2023-07-13T01:10:59;94481.56;;;24.67;54.85
6024;BME280;3040;42.654;23.296;2023-07-13T01:13:26;94504.00;;;24.91;55.32
6024;BME280;3040;42.654;23.296;2023-07-13T01:15:55;94512.28;;;25.03;56.20
6024;BME280;3040;42.654;23.296;2023-07-13T01:18:24;94507.97;;;25.06;56.72
6024;BME280;3040;42.654;23.296;2023-07-13T01:20:54;94518.13;;;25.02;56.47
6024;BME280;3040;42.654;23.296;2023-07-13T01:23:21;94508.00;;;24.66;56.50
6024;BME280;3040;42.654;23.296;2023-07-13T01:25:50;94498.56;;;23.92;58.40
6024;BME280;3040;42.654;23.296;2023-07-13T01:28:18;94507.69;;;24.02;58.11
6024;BME280;3040;42.654;23.296;2023-07-13T01:30:45;94499.13;;;24.03;57.55
6024;BME280;3040;42.654;23.296;2023-07-13T01:33:13;94492.66;;;24.17;56.98
6024;BME280;3040;42.654;23.296;2023-07-13T01:35:42;94504.94;;;24.25;57.45
6024;BME280;3040;42.654;23.296;2023-07-13T01:38:10;94471.22;;;24.22;56.42
6024;BME280;3040;42.654;23.296;2023-07-13T01:40:38;94501.50;;;24.60;57.25
6024;BME280;3040;42.654;23.296;2023-07-13T01:43:05;94502.63;;;24.63;57.88
6024;BME280;3040;42.654;23.296;2023-07-13T01:45:32;94497.97;;;24.63;57.64
6024;BME280;3040;42.654;23.296;2023-07-13T01:48:00;94500.66;;;24.47;57.04
6024;BME280;3040;42.654;23.296;2023-07-13T01:50:27;94493.13;;;24.35;57.15
6024;BME280;3040;42.654;23.296;2023-07-13T01:52:54;94489.59;;;24.15;57.90
6024;BME280;3040;42.654;23.296;2023-07-13T01:55:22;94459.63;;;23.99;57.61
6024;BME280;3040;42.654;23.296;2023-07-13T01:57:49;94491.13;;;24.16;59.16
6024;BME280;3040;42.654;23.296;2023-07-13T02:00:17;94501.13;;;24.22;60.44
6024;BME280;3040;42.654;23.296;2023-07-13T02:02:44;94497.16;;;24.27;60.23
6024;BME280;3040;42.654;23.296;2023-07-13T02:05:12;94493.47;;;24.14;58.98
6024;BME280;3040;42.654;23.296;2023-07-13T02:07:39;94506.28;;;23.93;59.98
6024;BME280;3040;42.654;23.296;2023-07-13T02:10:06;94469.22;;;23.60;60.77
6024;BME280;3040;42.654;23.296;2023-07-13T02:12:35;94502.25;;;24.02;60.00
6024;BME280;3040;42.654;23.296;2023-07-13T02:15:03;94483.84;;;23.89;59.96
6024;BME280;3040;42.654;23.296;2023-07-13T02:17:31;94508.59;;;23.95;59.42
6024;BME280;3040;42.654;23.296;2023-07-13T02:19:58;94508.38;;;24.06;59.52
6024;BME280;3040;42.654;23.296;2023-07-13T02:22:25;94510.03;;;24.00;59.12
6024;BME280;3040;42.654;23.296;2023-07-13T02:24:51;94505.34;;;24.04;59.83
6024;BME280;3040;42.654;23.296;2023-07-13T02:27:18;94511.78;;;23.67;61.41
6024;BME280;3040;42.654;23.296;2023-07-13T02:29:47;94367.22;;;22.66;60.80
6024;BME280;3040;42.654;23.296;2023-07-13T02:32:16;94517.84;;;23.51;61.39
6024;BME280;3040;42.654;23.296;2023-07-13T02:34:43;94522.59;;;23.47;61.86
6024;BME280;3040;42.654;23.296;2023-07-13T02:37:10;94509.28;;;23.56;61.69
6024;BME280;3040;42.654;23.296;2023-07-13T02:39:37;94513.38;;;23.64;62.63
6024;BME280;3040;42.654;23.296;2023-07-13T02:42:05;94503.09;;;23.52;61.73
6024;BME280;3040;42.654;23.296;2023-07-13T02:44:32;94518.53;;;23.05;63.69
6024;BME280;3040;42.654;23.296;2023-07-13T02:47:00;94514.44;;;23.47;63.09
6024;BME280;3040;42.654;23.296;2023-07-13T02:49:26;94500.75;;;23.54;62.49
6024;BME280;3040;42.654;23.296;2023-07-13T02:51:53;94524.06;;;23.51;62.75
6024;BME280;3040;42.654;23.296;2023-07-13T02:54:20;94514.91;;;23.65;62.75
6024;BME280;3040;42.654;23.296;2023-07-13T02:56:47;94513.91;;;23.79;63.17
6024;BME280;3040;42.654;23.296;2023-07-13T02:59:13;94512.19;;;23.88;63.10
6024;BME280;3040;42.654;23.296;2023-07-13T03:01:40;94499.56;;;23.78;62.74
6024;BME280;3040;42.654;23.296;2023-07-13T03:04:08;94514.16;;;23.65;63.47
6024;BME280;3040;42.654;23.296;2023-07-13T03:06:35;94518.94;;;23.57;63.87
6024;BME280;3040;42.654;23.296;2023-07-13T03:09:02;94515.31;;;23.64;63.66
6024;BME280;3040;42.654;23.296;2023-07-13T03:11:29;94506.88;;;23.58;63.68
6024;BME280;3040;42.654;23.296;2023-07-13T03:13:58;94527.91;;;23.77;63.54
6024;BME280;3040;42.654;23.296;2023-07-13T03:16:24;94531.31;;;23.81;63.67
6024;BME280;3040;42.654;23.296;2023-07-13T03:18:51;94375.94;;;22.81;63.08
6024;BME280;3040;42.654;23.296;2023-07-13T03:21:19;94522.84;;;23.79;63.69
6024;BME280;3040;42.654;23.296;2023-07-13T03:23:47;94531.69;;;23.83;63.70
6024;BME280;3040;42.654;23.296;2023-07-13T03:26:17;94483.88;;;23.66;62.93
6024;BME280;3040;42.654;23.296;2023-07-13T03:28:45;94495.31;;;23.77;62.18
6024;BME280;3040;42.654;23.296;2023-07-13T03:31:14;94515.00;;;23.35;63.87
6024;BME280;3040;42.654;23.296;2023-07-13T03:33:41;94533.22;;;23.61;63.58
6024;BME280;3040;42.654;23.296;2023-07-13T03:36:14;94533.28;;;23.81;63.79
6024;BME280;3040;42.654;23.296;2023-07-13T03:38:46;94525.78;;;23.88;63.44
6024;BME280;3040;42.654;23.296;2023-07-13T03:41:14;94534.03;;;24.05;63.32
6024;BME280;3040;42.654;23.296;2023-07-13T03:43:41;94535.38;;;24.16;62.41
6024;BME280;3040;42.654;23.296;2023-07-13T03:46:09;94533.19;;;24.08;62.90
6024;BME280;3040;42.654;23.296;2023-07-13T03:48:36;94486.06;;;23.75;62.40
6024;BME280;3040;42.654;23.296;2023-07-13T03:51:02;94531.78;;;24.23;62.57
6024;BME280;3040;42.654;23.296;2023-07-13T03:53:29;94528.09;;;24.33;62.28
6024;BME280;3040;42.654;23.296;2023-07-13T03:55:57;94534.44;;;24.46;63.04
6024;BME280;3040;42.654;23.296;2023-07-13T03:58:30;94500.06;;;24.36;62.48
6024;BME280;3040;42.654;23.296;2023-07-13T04:00:58;94529.44;;;24.64;63.24
6024;BME280;3040;42.654;23.296;2023-07-13T04:03:25;94530.75;;;24.56;62.82
6024;BME280;3040;42.654;23.296;2023-07-13T04:05:53;94535.53;;;24.68;61.48
6024;BME280;3040;42.654;23.296;2023-07-13T04:08:20;94531.97;;;24.71;61.68
6024;BME280;3040;42.654;23.296;2023-07-13T04:10:46;94528.44;;;24.55;63.14
6024;BME280;3040;42.654;23.296;2023-07-13T04:13:15;94532.41;;;24.70;62.68
6024;BME280;3040;42.654;23.296;2023-07-13T04:15:41;94536.19;;;24.76;63.66
6024;BME280;3040;42.654;23.296;2023-07-13T04:18:08;94523.06;;;24.71;63.90
6024;BME280;3040;42.654;23.296;2023-07-13T04:20:35;94526.97;;;24.90;64.32
6024;BME280;3040;42.654;23.296;2023-07-13T04:23:02;94521.66;;;24.83;64.05
6024;BME280;3040;42.654;23.296;2023-07-13T04:25:29;94526.31;;;25.02;63.97
6024;BME280;3040;42.654;23.296;2023-07-13T04:27:56;94534.00;;;25.23;63.04
6024;BME280;3040;42.654;23.296;2023-07-13T04:30:24;94518.44;;;25.24;63.15
6024;BME280;3040;42.654;23.296;2023-07-13T04:32:52;94546.47;;;25.57;62.96
6024;BME280;3040;42.654;23.296;2023-07-13T04:35:19;94543.06;;;25.69;61.72
6024;BME280;3040;42.654;23.296;2023-07-13T04:37:47;94545.13;;;25.81;62.58
6024;BME280;3040;42.654;23.296;2023-07-13T04:40:16;94550.38;;;25.88;62.92
6024;BME280;3040;42.654;23.296;2023-07-13T04:42:43;94393.28;;;24.88;63.09
6024;BME280;3040;42.654;23.296;2023-07-13T04:45:11;94558.53;;;26.04;62.52
6024;BME280;3040;42.654;23.296;2023-07-13T04:47:40;94560.25;;;25.98;62.85
6024;BME280;3040;42.654;23.296;2023-07-13T04:50:08;94560.44;;;25.91;63.14
6024;BME280;3040;42.654;23.296;2023-07-13T04:52:36;94553.59;;;25.50;65.04
6024;BME280;3040;42.654;23.296;2023-07-13T04:55:03;94559.63;;;25.62;64.39
6024;BME280;3040;42.654;23.296;2023-07-13T04:57:30;94547.25;;;25.57;63.03
6024;BME280;3040;42.654;23.296;2023-07-13T04:59:56;94570.47;;;25.94;61.80
6024;BME280;3040;42.654;23.296;2023-07-13T05:02:26;94556.81;;;26.10;61.53
6024;BME280;3040;42.654;23.296;2023-07-13T05:04:55;94575.75;;;26.33;61.48
6024;BME280;3040;42.654;23.296;2023-07-13T05:07:21;94574.59;;;26.47;60.38
6024;BME280;3040;42.654;23.296;2023-07-13T05:09:48;94570.28;;;26.62;59.68
6024;BME280;3040;42.654;23.296;2023-07-13T05:12:15;94576.69;;;26.56;60.31
6024;BME280;3040;42.654;23.296;2023-07-13T05:14:42;94567.78;;;26.68;61.56
6024;BME280;3040;42.654;23.296;2023-07-13T05:17:09;94573.72;;;26.79;62.49
6024;BME280;3040;42.654;23.296;2023-07-13T05:19:36;94571.53;;;26.74;62.61
6024;BME280;3040;42.654;23.296;2023-07-13T05:22:04;94582.06;;;26.88;62.22
6024;BME280;3040;42.654;23.296;2023-07-13T05:24:31;94583.44;;;26.80;62.52
6024;BME280;3040;42.654;23.296;2023-07-13T05:26:58;94557.72;;;26.65;61.29
6024;BME280;3040;42.654;23.296;2023-07-13T05:29:24;94573.78;;;26.34;63.40
6024;BME280;3040;42.654;23.296;2023-07-13T05:31:51;94574.28;;;26.45;63.30
6024;BME280;3040;42.654;23.296;2023-07-13T05:34:18;94586.00;;;25.97;65.64
6024;BME280;3040;42.654;23.296;2023-07-13T05:36:45;94588.19;;;26.18;64.04
6024;BME280;3040;42.654;23.296;2023-07-13T05:39:13;94588.34;;;26.44;63.70
6024;BME280;3040;42.654;23.296;2023-07-13T05:41:40;94593.66;;;26.63;62.97
6024;BME280;3040;42.654;23.296;2023-07-13T05:44:07;94585.28;;;26.83;62.23
6024;BME280;3040;42.654;23.296;2023-07-13T05:46:33;94592.56;;;27.02;60.34
6024;BME280;3040;42.654;23.296;2023-07-13T05:49:00;94577.88;;;27.12;59.77
6024;BME280;3040;42.654;23.296;2023-07-13T05:51:28;94563.31;;;27.16;59.33
6024;BME280;3040;42.654;23.296;2023-07-13T05:53:55;94447.69;;;26.43;58.65
6024;BME280;3040;42.654;23.296;2023-07-13T05:56:23;94587.09;;;27.57;56.84
6024;BME280;3040;42.654;23.296;2023-07-13T05:58:50;94585.88;;;27.70;56.73
6024;BME280;3040;42.654;23.296;2023-07-13T06:01:17;94582.16;;;27.64;56.05
6024;BME280;3040;42.654;23.296;2023-07-13T06:03:45;94566.41;;;27.68;57.13
6024;BME280;3040;42.654;23.296;2023-07-13T06:06:13;94564.13;;;27.67;55.73
6024;BME280;3040;42.654;23.296;2023-07-13T06:08:40;94570.47;;;27.76;54.69
6024;BME280;3040;42.654;23.296;2023-07-13T06:11:07;94557.97;;;27.88;55.97
6024;BME280;3040;42.654;23.296;2023-07-13T06:13:36;94561.88;;;28.00;54.79
6024;BME280;3040;42.654;23.296;2023-07-13T06:16:03;94580.59;;;28.14;55.28
6024;BME280;3040;42.654;23.296;2023-07-13T06:18:31;94583.28;;;28.26;53.69
6024;BME280;3040;42.654;23.296;2023-07-13T06:20:58;94579.22;;;28.31;51.87
6024;BME280;3040;42.654;23.296;2023-07-13T06:23:25;94582.84;;;28.28;51.47
6024;BME280;3040;42.654;23.296;2023-07-13T06:25:52;94586.00;;;28.39;50.70
6024;BME280;3040;42.654;23.296;2023-07-13T06:28:19;94584.97;;;28.46;50.05
6024;BME280;3040;42.654;23.296;2023-07-13T06:30:47;94584.31;;;28.42;49.75
6024;BME280;3040;42.654;23.296;2023-07-13T06:33:14;94587.13;;;28.04;51.58
6024;BME280;3040;42.654;23.296;2023-07-13T06:35:40;94535.44;;;27.97;52.04
6024;BME280;3040;42.654;23.296;2023-07-13T06:38:07;94569.41;;;28.21;51.05
6024;BME280;3040;42.654;23.296;2023-07-13T06:40:34;94550.16;;;28.46;51.86
6024;BME280;3040;42.654;23.296;2023-07-13T06:43:01;94579.44;;;28.93;50.73
6024;BME280;3040;42.654;23.296;2023-07-13T06:45:28;94568.59;;;29.11;51.57
6024;BME280;3040;42.654;23.296;2023-07-13T06:47:56;94580.13;;;29.37;49.33
6024;BME280;3040;42.654;23.296;2023-07-13T06:50:23;94574.16;;;29.29;49.48
6024;BME280;3040;42.654;23.296;2023-07-13T06:52:49;94568.81;;;29.57;49.77
6024;BME280;3040;42.654;23.296;2023-07-13T06:55:16;94574.94;;;29.70;49.36
6024;BME280;3040;42.654;23.296;2023-07-13T06:57:43;94569.19;;;29.86;50.05
6024;BME280;3040;42.654;23.296;2023-07-13T07:00:11;94577.81;;;30.15;49.66
6024;BME280;3040;42.654;23.296;2023-07-13T07:02:38;94572.66;;;30.26;49.60
6024;BME280;3040;42.654;23.296;2023-07-13T07:05:06;94579.72;;;30.55;48.38
6024;BME280;3040;42.654;23.296;2023-07-13T07:07:33;94585.81;;;30.68;46.63
6024;BME280;3040;42.654;23.296;2023-07-13T07:10:00;94586.13;;;30.79;47.35
6024;BME280;3040;42.654;23.296;2023-07-13T07:12:28;94575.44;;;30.90;46.31
6024;BME280;3040;42.654;23.296;2023-07-13T07:14:55;94576.00;;;31.12;46.15
6024;BME280;3040;42.654;23.296;2023-07-13T07:17:22;94574.44;;;31.30;45.31
6024;BME280;3040;42.654;23.296;2023-07-13T07:19:49;94585.69;;;31.50;45.30
6024;BME280;3040;42.654;23.296;2023-07-13T07:22:17;94579.06;;;31.66;45.10
6024;BME280;3040;42.654;23.296;2023-07-13T07:24:43;94578.31;;;31.65;44.39
6024;BME280;3040;42.654;23.296;2023-07-13T07:27:10;94577.88;;;31.58;44.43
6024;BME280;3040;42.654;23.296;2023-07-13T07:29:37;94570.31;;;31.76;42.39
6024;BME280;3040;42.654;23.296;2023-07-13T07:32:04;94570.28;;;31.85;42.22
6024;BME280;3040;42.654;23.296;2023-07-13T07:34:31;94567.13;;;32.02;42.01
6024;BME280;3040;42.654;23.296;2023-07-13T07:36:59;94562.47;;;32.17;42.65
6024;BME280;3040;42.654;23.296;2023-07-13T07:39:28;94562.34;;;32.35;41.84
6024;BME280;3040;42.654;23.296;2023-07-13T07:41:55;94559.63;;;32.50;43.04
6024;BME280;3040;42.654;23.296;2023-07-13T07:44:22;94535.38;;;32.39;42.13
6024;BME280;3040;42.654;23.296;2023-07-13T07:46:48;94560.19;;;32.15;42.01
6024;BME280;3040;42.654;23.296;2023-07-13T07:49:15;94550.38;;;31.90;41.40
6024;BME280;3040;42.654;23.296;2023-07-13T07:51:42;94549.97;;;32.07;41.60
6024;BME280;3040;42.654;23.296;2023-07-13T07:54:09;94557.28;;;31.44;42.80
6024;BME280;3040;42.654;23.296;2023-07-13T07:56:37;94547.25;;;31.32;44.57
6024;BME280;3040;42.654;23.296;2023-07-13T07:59:04;94526.03;;;31.74;43.92
6024;BME280;3040;42.654;23.296;2023-07-13T08:01:31;94550.59;;;32.02;42.03
6024;BME280;3040;42.654;23.296;2023-07-13T08:03:57;94537.56;;;31.87;42.14
6024;BME280;3040;42.654;23.296;2023-07-13T08:06:24;94530.63;;;32.25;42.68
6024;BME280;3040;42.654;23.296;2023-07-13T08:08:51;94535.97;;;31.30;44.59
6024;BME280;3040;42.654;23.296;2023-07-13T08:11:18;94522.78;;;31.43;43.53
6024;BME280;3040;42.654;23.296;2023-07-13T08:13:46;94519.38;;;31.48;45.08
6024;BME280;3040;42.654;23.296;2023-07-13T08:16:13;94523.97;;;31.51;46.15
6024;BME280;3040;42.654;23.296;2023-07-13T08:18:39;94522.63;;;31.79;45.42
6024;BME280;3040;42.654;23.296;2023-07-13T08:21:07;94513.97;;;31.96;45.10
6024;BME280;3040;42.654;23.296;2023-07-13T08:23:35;94518.53;;;31.99;45.68
6024;BME280;3040;42.654;23.296;2023-07-13T08:26:02;94521.72;;;32.45;44.01
6024;BME280;3040;42.654;23.296;2023-07-13T08:28:30;94510.69;;;32.68;42.70
6024;BME280;3040;42.654;23.296;2023-07-13T08:31:01;94518.00;;;32.71;42.25
6024;BME280;3040;42.654;23.296;2023-07-13T08:33:28;94518.41;;;32.55;41.93
6024;BME280;3040;42.654;23.296;2023-07-13T08:35:55;94522.50;;;32.45;41.54
6024;BME280;3040;42.654;23.296;2023-07-13T08:38:22;94518.81;;;32.48;42.00
6024;BME280;3040;42.654;23.296;2023-07-13T08:40:51;94511.19;;;32.96;41.23
6024;BME280;3040;42.654;23.296;2023-07-13T08:43:25;94510.41;;;33.25;39.24
6024;BME280;3040;42.654;23.296;2023-07-13T08:45:57;94509.44;;;33.43;39.22
6024;BME280;3040;42.654;23.296;2023-07-13T08:48:31;94503.31;;;33.53;39.37
6024;BME280;3040;42.654;23.296;2023-07-13T08:51:09;94489.78;;;33.70;39.17
6024;BME280;3040;42.654;23.296;2023-07-13T08:53:41;94514.75;;;34.16;38.20
6024;BME280;3040;42.654;23.296;2023-07-13T08:56:11;94493.34;;;34.31;36.55
6024;BME280;3040;42.654;23.296;2023-07-13T08:58:42;94510.88;;;34.49;36.96
6024;BME280;3040;42.654;23.296;2023-07-13T09:01:16;94512.06;;;34.22;37.77
6024;BME280;3040;42.654;23.296;2023-07-13T09:03:52;94517.63;;;34.07;37.82
6024;BME280;3040;42.654;23.296;2023-07-13T09:06:30;94530.00;;;34.12;37.99
6024;BME280;3040;42.654;23.296;2023-07-13T09:09:00;94534.59;;;33.80;37.83
6024;BME280;3040;42.654;23.296;2023-07-13T09:11:45;94455.88;;;33.49;38.18
6024;BME280;3040;42.654;23.296;2023-07-13T09:14:31;94538.16;;;34.21;37.00
6024;BME280;3040;42.654;23.296;2023-07-13T09:17:03;94524.97;;;34.30;38.22
6024;BME280;3040;42.654;23.296;2023-07-13T09:19:33;94543.59;;;34.76;35.63
6024;BME280;3040;42.654;23.296;2023-07-13T09:22:02;94515.44;;;34.72;34.33
6024;BME280;3040;42.654;23.296;2023-07-13T09:24:36;94546.34;;;34.56;35.60
6024;BME280;3040;42.654;23.296;2023-07-13T09:27:11;94544.47;;;34.07;37.13
6024;BME280;3040;42.654;23.296;2023-07-13T09:29:42;94538.38;;;34.38;36.54
6024;BME280;3040;42.654;23.296;2023-07-13T09:32:14;94545.22;;;34.07;38.12
6024;BME280;3040;42.654;23.296;2023-07-13T09:34:50;94545.44;;;34.04;37.09
6024;BME280;3040;42.654;23.296;2023-07-13T09:37:17;94535.47;;;34.26;36.53
6024;BME280;3040;42.654;23.296;2023-07-13T09:39:44;94539.03;;;34.12;37.06
6024;BME280;3040;42.654;23.296;2023-07-13T09:42:15;94536.00;;;34.30;36.73
6024;BME280;3040;42.654;23.296;2023-07-13T09:44:52;94528.50;;;34.31;37.15
6024;BME280;3040;42.654;23.296;2023-07-13T09:47:21;94528.25;;;34.55;35.42
6024;BME280;3040;42.654;23.296;2023-07-13T09:49:54;94522.03;;;34.80;35.80
6024;BME280;3040;42.654;23.296;2023-07-13T09:52:21;94515.94;;;35.28;36.11
6024;BME280;3040;42.654;23.296;2023-07-13T09:54:50;94507.63;;;35.59;34.82
6024;BME280;3040;42.654;23.296;2023-07-13T09:57:23;94508.44;;;36.08;34.03
6024;BME280;3040;42.654;23.296;2023-07-13T09:59:52;94499.78;;;36.48;33.46
6024;BME280;3040;42.654;23.296;2023-07-13T10:02:27;94497.13;;;36.82;32.26
6024;BME280;3040;42.654;23.296;2023-07-13T10:05:01;94504.56;;;36.42;32.70
6024;BME280;3040;42.654;23.296;2023-07-13T10:07:29;94481.75;;;36.75;32.60
6024;BME280;3040;42.654;23.296;2023-07-13T10:09:57;94479.75;;;37.03;29.19
6024;BME280;3040;42.654;23.296;2023-07-13T10:12:26;94483.53;;;37.39;31.71
6024;BME280;3040;42.654;23.296;2023-07-13T10:14:55;94489.56;;;37.77;30.50
6024;BME280;3040;42.654;23.296;2023-07-13T10:17:27;94480.78;;;37.39;31.10
6024;BME280;3040;42.654;23.296;2023-07-13T10:19:59;94351.16;;;36.34;30.05
6024;BME280;3040;42.654;23.296;2023-07-13T10:22:37;94481.06;;;37.19;23.65
6024;BME280;3040;42.654;23.296;2023-07-13T10:25:15;94479.75;;;36.81;23.16
6024;BME280;3040;42.654;23.296;2023-07-13T10:27:43;94472.34;;;35.91;22.61
6024;BME280;3040;42.654;23.296;2023-07-13T10:30:15;94474.88;;;35.52;22.87
6024;BME280;3040;42.654;23.296;2023-07-13T10:32:45;94470.88;;;34.90;24.42
6024;BME280;3040;42.654;23.296;2023-07-13T10:35:15;94475.22;;;35.02;24.91
6024;BME280;3040;42.654;23.296;2023-07-13T10:37:49;94458.06;;;34.93;23.95
6024;BME280;3040;42.654;23.296;2023-07-13T10:40:21;94456.25;;;34.84;24.64
6024;BME280;3040;42.654;23.296;2023-07-13T10:42:51;94454.34;;;34.70;25.14
6024;BME280;3040;42.654;23.296;2023-07-13T10:45:22;94454.66;;;35.09;25.45
6024;BME280;3040;42.654;23.296;2023-07-13T10:47:52;94453.91;;;35.08;24.80
6024;BME280;3040;42.654;23.296;2023-07-13T10:50:25;94445.78;;;35.62;23.93
6024;BME280;3040;42.654;23.296;2023-07-13T10:52:53;94397.28;;;35.72;23.78
6024;BME280;3040;42.654;23.296;2023-07-13T10:55:35;94441.88;;;35.85;25.13
6024;BME280;3040;42.654;23.296;2023-07-13T10:58:10;94432.25;;;35.75;24.34
6024;BME280;3040;42.654;23.296;2023-07-13T11:00:46;94442.72;;;35.60;25.26
6024;BME280;3040;42.654;23.296;2023-07-13T11:03:15;94421.81;;;35.54;25.12
6024;BME280;3040;42.654;23.296;2023-07-13T11:05:48;94423.47;;;35.77;25.35
6024;BME280;3040;42.654;23.296;2023-07-13T11:08:20;94401.56;;;35.73;24.22
6024;BME280;3040;42.654;23.296;2023-07-13T11:10:52;94415.66;;;35.75;25.55
6024;BME280;3040;42.654;23.296;2023-07-13T11:13:38;94417.38;;;36.21;25.46
6024;BME280;3040;42.654;23.296;2023-07-13T11:16:34;94413.66;;;36.46;24.06
6024;BME280;3040;42.654;23.296;2023-07-13T11:19:25;94405.81;;;36.39;24.26
6024;BME280;3040;42.654;23.296;2023-07-13T11:22:13;94406.31;;;36.32;25.33
6024;BME280;3040;42.654;23.296;2023-07-13T11:24:51;94391.00;;;37.20;23.72
6024;BME280;3040;42.654;23.296;2023-07-13T11:27:27;94408.41;;;36.71;23.33
6024;BME280;3040;42.654;23.296;2023-07-13T11:30:25;94392.97;;;36.36;24.98
6024;BME280;3040;42.654;23.296;2023-07-13T11:33:10;94398.50;;;36.30;24.49
6024;BME280;3040;42.654;23.296;2023-07-13T11:35:52;94390.59;;;36.07;24.66
6024;BME280;3040;42.654;23.296;2023-07-13T11:38:27;94384.31;;;36.12;25.01
6024;BME280;3040;42.654;23.296;2023-07-13T11:40:55;94389.00;;;36.76;23.94
6024;BME280;3040;42.654;23.296;2023-07-13T11:43:24;94383.97;;;36.75;23.30
6024;BME280;3040;42.654;23.296;2023-07-13T11:45:51;94386.19;;;36.48;24.28
6024;BME280;3040;42.654;23.296;2023-07-13T11:48:20;94387.00;;;36.82;24.21
6024;BME280;3040;42.654;23.296;2023-07-13T11:50:57;94332.03;;;36.47;22.13
6024;BME280;3040;42.654;23.296;2023-07-13T11:53:37;94377.25;;;36.00;23.16
6024;BME280;3040;42.654;23.296;2023-07-13T11:56:06;94374.00;;;36.07;24.84
6024;BME280;3040;42.654;23.296;2023-07-13T11:58:33;94371.50;;;36.09;24.44
6024;BME280;3040;42.654;23.296;2023-07-13T12:01:02;94249.84;;;35.13;26.07
6024;BME280;3040;42.654;23.296;2023-07-13T12:03:30;94361.50;;;36.61;24.11
6024;BME280;3040;42.654;23.296;2023-07-13T12:06:00;94367.03;;;36.50;23.45
6024;BME280;3040;42.654;23.296;2023-07-13T12:08:29;94353.94;;;36.56;24.29
6024;BME280;3040;42.654;23.296;2023-07-13T12:10:58;94330.75;;;36.48;23.52
6024;BME280;3040;42.654;23.296;2023-07-13T12:13:27;94352.94;;;36.59;24.17
6024;BME280;3040;42.654;23.296;2023-07-13T12:15:54;94364.56;;;36.86;24.70
6024;BME280;3040;42.654;23.296;2023-07-13T12:18:24;94342.34;;;37.08;24.98
6024;BME280;3040;42.654;23.296;2023-07-13T12:20:57;94356.97;;;37.14;24.69
6024;BME280;3040;42.654;23.296;2023-07-13T12:23:29;94326.47;;;36.97;24.42
6024;BME280;3040;42.654;23.296;2023-07-13T12:25:58;94346.00;;;37.72;24.35
6024;BME280;3040;42.654;23.296;2023-07-13T12:28:32;94333.47;;;38.01;25.09
6024;BME280;3040;42.654;23.296;2023-07-13T12:31:00;94344.72;;;38.25;25.59
6024;BME280;3040;42.654;23.296;2023-07-13T12:33:29;94345.06;;;38.51;25.50
6024;BME280;3040;42.654;23.296;2023-07-13T12:36:00;94336.31;;;39.01;24.57
6024;BME280;3040;42.654;23.296;2023-07-13T12:38:29;94338.75;;;39.11;24.66
6024;BME280;3040;42.654;23.296;2023-07-13T12:40:56;94299.09;;;38.45;25.26
6024;BME280;3040;42.654;23.296;2023-07-13T12:43:24;94295.53;;;38.50;24.58
6024;BME280;3040;42.654;23.296;2023-07-13T12:45:57;94330.78;;;38.66;24.77
6024;BME280;3040;42.654;23.296;2023-07-13T12:48:24;94328.59;;;38.83;24.17
6024;BME280;3040;42.654;23.296;2023-07-13T12:50:53;94331.66;;;39.39;23.80
6024;BME280;3040;42.654;23.296;2023-07-13T12:53:22;94333.53;;;39.93;22.79
6024;BME280;3040;42.654;23.296;2023-07-13T12:55:53;94327.25;;;39.68;23.52
6024;BME280;3040;42.654;23.296;2023-07-13T12:58:26;94333.22;;;40.15;22.62
6024;BME280;3040;42.654;23.296;2023-07-13T13:00:54;94323.47;;;40.59;21.90
6024;BME280;3040;42.654;23.296;2023-07-13T13:03:29;94314.13;;;41.02;23.09
6024;BME280;3040;42.654;23.296;2023-07-13T13:06:02;94316.34;;;41.22;23.21
6024;BME280;3040;42.654;23.296;2023-07-13T13:08:30;94316.22;;;41.28;23.17
6024;BME280;3040;42.654;23.296;2023-07-13T13:10:59;94313.59;;;40.90;22.10
6024;BME280;3040;42.654;23.296;2023-07-13T13:13:26;94304.13;;;40.93;21.47
6024;BME280;3040;42.654;23.296;2023-07-13T13:15:53;94308.03;;;41.03;20.58
6024;BME280;3040;42.654;23.296;2023-07-13T13:18:21;94277.88;;;41.02;21.48
6024;BME280;3040;42.654;23.296;2023-07-13T13:20:49;94305.78;;;41.02;21.87